Airfield :
LOGIN :

Register | Disclaimer

   EN    FR    IT 

 










Legend :    VFR   Marginal VFR   IFR   Intensive IFR   Very Intensive IFR
Visi :
Ceiling :
>= 8 km
>= 3000ft
5 to 8 km
1000 to 3000 ft
1500m to 5 km
500 to 1000 ft
800 to 1500m
200 to 500 ft
< 800m
< 200 ft
Symbols :   Thunderstorms  Fog  Heavy snow  Heavy precipitations  Wind > 20 kt
SIGMETs :     Misc.  Thunderstorms  Icing  Turbulence  Mountain Waves  Volcanic Ashes






- Airport Elevation : 1058 ft
- IATA code : SCN


EDDR - Saarbrücken

CURRENT METAR :
  • 170320Z 12003KT 100V160 9999 OVC007 08/07 Q1019

EXPIRED METARs :
  • 170250Z 11004KT 070V140 9999 OVC008 08/07 Q1019
  • 170220Z 11003KT 8000 OVC008 08/07 Q1020
  • 170150Z VRB02KT 8000 OVC008 08/08 Q1020
  • 170120Z VRB01KT 5000 BR FEW006 OVC009 08/07 Q1020
  • 170050Z VRB01KT 2500 BR FEW006 OVC009 08/07 Q1020

TAF AMD TAF EDDR
Valid from the 17 at 03:00 until the 18 at 00:00 UTC


170303Z 1703/1724 VRB03KT 6000 OVC008
TEMPO 1703/1708 0300 FG VV001
BECMG 1709/1712 SCT015
BECMG 1720/1724 1200 BCFG



MET'MAP, your aeronautical weather chart ! - Copyright ORBIFLY December 2007 - Disclaimer

ORBIFLY MET'MAP TEAM :

Programming & Development : Alexandra Zaïnal
Concept & original design : Baudouin d'Aumeries
Assistance for programming : Marc-Olivier Méhu
Technical & hardware support : Manuel Goepfert

Contact : metmap@orbifly.com




SOURCES & CREDITS :

   NOAA